বাংলা English Search

Light to moderate rain/ thunder showers accompanied by temporary gusty wind is likely to occur at a few places over Rangpur, Mymensingh, Khulna, Barishal, Chattogram & Sylhet divisions and at one or two places over Dhaka & Rajshahi divisions with moderately heavy falls at places over the country .

TAF

 

TAF  VGHS  241700Z   2418/2524  16008KT  3500 HZ  SCT012  BKN100
TEMPO  2500/2509  18020G30KT  2000 RA/TSRA  BKN008  FEW025CB  OVC090
BECMG  2510/2512  17008KT   4000 HZ  SCT012  BKN100=

 

TAF VGEG 241100Z 2412/2518 15010KT 4500 SCT016 BKN120
  BECMG 2416/2418 15008KT 4000 SCT016 BKN120
  BECMG 2504/2506 22013KT 5000 SCT016 BKN120
  BECMG 2513/2515 16010KT 4000 SCT017 BKN110=


 TAF VGSY 241000Z 2412/2518 22005KT 4000HZ SCT015 BKN100 BECMG 2423/2501 05004KT 3000HZ SCT012 BKN100 BECMG 2503/2505 09005KT 3500HZ SCT015 BKN100 TEMPO 2415/2506 18020G30KT 2000 RA/TSRA BKN007 FEW025CB OVC090 .